Time;durP1;ratioP1;P1;durP2;ratioP2;P2;SDS_P1;SDS_P2;PMS_P1;PMS_P2;Temp;Humidity;BMP_temperature;BMP_pressure;BME280_temperature;BME280_humidity;BME280_pressure;Samples;Min_cycle;Max_cycle;Signal;HPM_P1;HPM_P2
2023/09/16 00:01:06;;;;;;;;;;;;;;;19.96;100.00;95579.78;5134414;28;988;-56
2023/09/16 00:03:35;;;;;;;;;;;;;;;19.94;100.00;95564.72;5134498;28;1041;-56
2023/09/16 00:06:01;;;;;;;;;;;;;;;19.90;100.00;95564.34;5134168;28;981;-56
2023/09/16 00:08:27;;;;;;;;;;;;;;;20.00;100.00;95572.88;5134530;27;1989;-56
2023/09/16 00:10:53;;;;;;;;;;;;;;;20.14;100.00;95560.13;5138699;27;1037;-56
2023/09/16 00:13:19;;;;;;;;;;;;;;;20.14;100.00;95572.88;5138222;27;1067;-56
2023/09/16 00:15:48;;;;;;;;;;;;;;;20.11;100.00;95566.00;5138589;27;996;-56
2023/09/16 00:18:15;;;;;;;;;;;;;;;20.18;100.00;95563.25;5138431;27;992;-56
2023/09/16 00:20:41;;;;;;;;;;;;;;;20.23;100.00;95560.75;5138113;27;1122;-56
2023/09/16 00:23:07;;;;;;;;;;;;;;;20.20;100.00;95555.72;5138126;27;1131;-56
2023/09/16 00:25:33;;;;;;;;;;;;;;;20.22;100.00;95556.34;5137139;27;2407;-54
2023/09/16 00:27:59;;;;;;;;;;;;;;;19.96;100.00;95552.63;5138286;27;1918;-56
2023/09/16 00:30:25;;;;;;;;;;;;;;;19.87;100.00;95549.28;5138204;27;972;-55
2023/09/16 00:32:51;;;;;;;;;;;;;;;19.91;100.00;95557.03;5137998;27;1052;-56
2023/09/16 00:35:17;;;;;;;;;;;;;;;19.80;100.00;95553.88;5137790;27;1022;-56
2023/09/16 00:37:43;;;;;;;;;;;;;;;19.73;100.00;95554.91;5137858;27;1095;-55
2023/09/16 00:40:09;;;;;;;;;;;;;;;19.66;100.00;95549.47;5137861;27;1040;-55
2023/09/16 00:42:38;;;;;;;;;;;;;;;19.63;100.00;95545.28;5137721;27;1033;-56
2023/09/16 00:45:10;;;;;;;;;;;;;;;19.77;100.00;95538.03;5138027;27;1036;-56
2023/09/16 00:47:42;;;;;;;;;;;;;;;19.82;100.00;95537.41;5137690;27;1925;-56
2023/09/16 00:50:09;;;;;;;;;;;;;;;19.90;100.00;95537.19;5137865;27;964;-56
2023/09/16 00:52:37;;;;;;;;;;;;;;;19.94;100.00;95543.00;5137692;27;1228;-56
2023/09/16 00:55:03;;;;;;;;;;;;;;;19.96;100.00;95549.09;5137695;27;1066;-55
2023/09/16 00:57:31;;;;;;;;;;;;;;;19.80;100.00;95544.91;5137523;27;969;-56
2023/09/16 00:59:57;;;;;;;;;;;;;;;19.57;100.00;95537.16;5117313;28;1566;-56
2023/09/16 01:02:23;;;;;;;;;;;;;;;19.51;100.00;95527.97;5117004;28;985;-56
2023/09/16 01:04:50;;;;;;;;;;;;;;;19.63;100.00;95522.75;5117060;28;1000;-56
2023/09/16 01:07:17;;;;;;;;;;;;;;;19.76;100.00;95524.69;5116829;28;1999;-56
2023/09/16 01:09:43;;;;;;;;;;;;;;;19.75;100.00;95534.69;5116868;28;1116;-55
2023/09/16 01:12:10;;;;;;;;;;;;;;;19.79;100.00;95532.41;5116976;28;1033;-56
2023/09/16 01:14:36;;;;;;;;;;;;;;;19.73;100.00;95534.06;5116626;28;1267;-56
2023/09/16 01:17:08;;;;;;;;;;;;;;;19.68;100.00;95520.25;5116493;28;1044;-56
2023/09/16 01:19:56;;;;;;;;;;;;;;;19.73;100.00;95516.94;5116207;28;960;-56
2023/09/16 01:22:22;;;;;;;;;;;;;;;19.86;100.00;95530.50;5098530;28;985;-56
2023/09/16 01:24:51;;;;;;;;;;;;;;;19.92;100.00;95528.81;5116586;28;1053;-56
2023/09/16 01:27:17;;;;;;;;;;;;;;;19.85;100.00;95537.81;5116549;28;1922;-56
2023/09/16 01:29:44;;;;;;;;;;;;;;;19.82;100.00;95534.69;5116241;28;1310;-56
2023/09/16 01:32:11;;;;;;;;;;;;;;;19.78;100.00;95530.72;5116465;28;1040;-55
2023/09/16 01:34:41;;;;;;;;;;;;;;;19.82;100.00;95532.78;5116224;28;1028;-56
2023/09/16 01:37:12;;;;;;;;;;;;;;;19.76;100.00;95536.34;5116306;28;1062;-56
2023/09/16 01:39:39;;;;;;;;;;;;;;;19.77;100.00;95542.59;5116203;28;1060;-56
2023/09/16 01:42:05;;;;;;;;;;;;;;;19.83;100.00;95541.78;5097856;28;1096;-56
2023/09/16 01:44:31;;;;;;;;;;;;;;;19.89;100.00;95549.91;5116254;28;1035;-56
2023/09/16 01:46:57;;;;;;;;;;;;;;;19.88;100.00;95552.84;5116166;28;1909;-56
2023/09/16 01:49:23;;;;;;;;;;;;;;;19.82;100.00;95551.78;5132753;27;1245;-56
2023/09/16 01:51:50;;;;;;;;;;;;;;;19.85;100.00;95547.84;5135326;27;2866;-56
2023/09/16 01:54:16;;;;;;;;;;;;;;;19.88;100.00;95556.41;5136415;27;987;-56
2023/09/16 01:56:44;;;;;;;;;;;;;;;19.83;100.00;95544.50;5136625;27;1053;-56
2023/09/16 01:59:10;;;;;;;;;;;;;;;19.79;100.00;95554.13;5136488;27;1534;-56
2023/09/16 02:01:36;;;;;;;;;;;;;;;19.74;100.00;95552.00;5136604;27;1044;-55
2023/09/16 02:04:02;;;;;;;;;;;;;;;19.77;100.00;95553.47;5136291;27;1039;-56
2023/09/16 02:06:28;;;;;;;;;;;;;;;19.73;100.00;95550.34;5136076;27;1106;-55
2023/09/16 02:08:54;;;;;;;;;;;;;;;19.77;100.00;95548.88;5136136;27;1913;-56
2023/09/16 02:11:20;;;;;;;;;;;;;;;19.83;100.00;95548.03;5136246;27;1023;-56
2023/09/16 02:13:46;;;;;;;;;;;;;;;19.91;100.00;95552.44;5135991;27;1036;-56
2023/09/16 02:16:12;;;;;;;;;;;;;;;19.83;100.00;95547.22;5135869;27;1075;-55
2023/09/16 02:18:38;;;;;;;;;;;;;;;19.82;100.00;95554.50;5135857;27;1040;-56
2023/09/16 02:21:04;;;;;;;;;;;;;;;19.84;100.00;95562.44;5136142;27;1051;-55
2023/09/16 02:23:30;;;;;;;;;;;;;;;19.91;100.00;95560.56;5135786;27;1052;-56
2023/09/16 02:26:00;;;;;;;;;;;;;;;19.82;100.00;95564.53;5135864;27;1051;-56
2023/09/16 02:28:26;;;;;;;;;;;;;;;19.79;100.00;95564.97;5135543;27;1909;-56
2023/09/16 02:30:52;;;;;;;;;;;;;;;19.79;100.00;95559.53;5117452;27;973;-56
2023/09/16 02:33:18;;;;;;;;;;;;;;;19.75;100.00;95556.41;5135329;27;988;-56
2023/09/16 02:35:45;;;;;;;;;;;;;;;19.80;100.00;95553.06;5135600;27;1028;-56
2023/09/16 02:38:11;;;;;;;;;;;;;;;19.84;100.00;95557.88;5135467;27;1037;-56
2023/09/16 02:40:40;;;;;;;;;;;;;;;19.87;100.00;95556.59;5135760;27;964;-55
2023/09/16 02:43:07;;;;;;;;;;;;;;;19.89;100.00;95555.34;5135390;27;1028;-56
2023/09/16 02:45:37;;;;;;;;;;;;;;;19.87;100.00;95562.84;5135332;27;1036;-56
2023/09/16 02:48:04;;;;;;;;;;;;;;;19.91;100.00;95565.16;5135353;27;1909;-56
2023/09/16 02:50:32;;;;;;;;;;;;;;;19.88;100.00;95566.41;5135391;27;979;-56
2023/09/16 02:52:58;;;;;;;;;;;;;;;19.87;100.00;95564.75;5135320;27;1016;-56
2023/09/16 02:55:24;;;;;;;;;;;;;;;19.89;100.00;95570.78;5135096;27;1041;-56
2023/09/16 02:57:50;;;;;;;;;;;;;;;19.94;100.00;95570.16;5135405;27;1564;-56
2023/09/16 03:00:16;;;;;;;;;;;;;;;19.96;100.00;95576.22;5135247;27;1018;-56
2023/09/16 03:02:46;;;;;;;;;;;;;;;19.98;100.00;95569.53;5135240;27;957;-55
2023/09/16 03:05:11;;;;;;;;;;;;;;;19.96;100.00;95573.53;5135125;27;983;-56
2023/09/16 03:07:37;;;;;;;;;;;;;;;19.91;100.00;95571.41;5135219;27;1984;-56
2023/09/16 03:10:03;;;;;;;;;;;;;;;19.91;100.00;95584.16;5135204;27;973;-55
2023/09/16 03:12:29;;;;;;;;;;;;;;;19.94;100.00;95579.16;5135075;27;975;-56
2023/09/16 03:14:55;;;;;;;;;;;;;;;19.83;100.00;95583.31;5135075;27;1072;-55
2023/09/16 03:17:21;;;;;;;;;;;;;;;19.78;100.00;95574.13;5134743;27;1091;-56
2023/09/16 03:19:47;;;;;;;;;;;;;;;19.80;100.00;95572.03;5135104;27;995;-55
2023/09/16 03:22:13;;;;;;;;;;;;;;;19.73;100.00;95571.19;5134975;27;1036;-56
2023/09/16 03:24:39;;;;;;;;;;;;;;;19.66;100.00;95569.28;5134984;27;969;-56
2023/09/16 03:27:05;;;;;;;;;;;;;;;19.55;100.00;95575.34;5134901;27;1988;-55
2023/09/16 03:29:31;;;;;;;;;;;;;;;19.61;100.00;95581.81;5134779;27;979;-55
2023/09/16 03:31:57;;;;;;;;;;;;;;;19.67;100.00;95584.53;5134634;27;1978;-55
2023/09/16 03:34:23;;;;;;;;;;;;;;;19.75;100.00;95588.09;5134787;27;970;-56
2023/09/16 03:36:49;;;;;;;;;;;;;;;19.71;100.00;95584.97;5134628;27;1035;-56
2023/09/16 03:39:15;;;;;;;;;;;;;;;19.65;100.00;95580.34;5134385;27;1052;-56
2023/09/16 03:41:41;;;;;;;;;;;;;;;19.56;100.00;95581.59;5134451;27;1087;-55
2023/09/16 03:44:07;;;;;;;;;;;;;;;19.36;100.00;95576.13;5134495;27;973;-55
2023/09/16 03:46:33;;;;;;;;;;;;;;;19.33;100.00;95588.25;5134308;27;1036;-56
2023/09/16 03:48:59;;;;;;;;;;;;;;;19.58;100.00;95587.63;5134279;28;1913;-55
2023/09/16 03:51:28;;;;;;;;;;;;;;;19.70;100.00;95588.69;5134550;28;963;-56
2023/09/16 03:53:54;;;;;;;;;;;;;;;19.76;100.00;95593.31;5134580;28;1028;-55
2023/09/16 03:56:20;;;;;;;;;;;;;;;19.69;100.00;95596.03;5134250;28;1063;-55
2023/09/16 03:58:46;;;;;;;;;;;;;;;19.58;100.00;95587.63;5124473;28;1622;-56
2023/09/16 04:01:12;;;;;;;;;;;;;;;19.46;100.00;95596.41;5113822;28;980;-56
2023/09/16 04:03:38;;;;;;;;;;;;;;;19.24;100.00;95597.59;5114044;28;1055;-56
2023/09/16 04:06:04;;;;;;;;;;;;;;;19.20;100.00;95590.88;5113785;28;1016;-56
2023/09/16 04:08:30;;;;;;;;;;;;;;;19.36;100.00;95592.41;5095740;28;1910;-56
2023/09/16 04:10:57;;;;;;;;;;;;;;;19.45;100.00;95591.19;5095699;28;1024;-55
2023/09/16 04:13:23;;;;;;;;;;;;;;;19.38;100.00;95596.56;5113583;28;1080;-56
2023/09/16 04:15:49;;;;;;;;;;;;;;;19.33;100.00;95590.09;5113806;28;1043;-56
2023/09/16 04:18:15;;;;;;;;;;;;;;;19.41;100.00;95598.88;5113797;28;964;-55
2023/09/16 04:20:42;;;;;;;;;;;;;;;19.48;100.00;95612.44;5113610;28;1864;-55
2023/09/16 04:23:08;;;;;;;;;;;;;;;19.49;100.00;95603.28;5113868;28;969;-56
2023/09/16 04:25:35;;;;;;;;;;;;;;;19.55;100.00;95605.16;5113717;28;1035;-55
2023/09/16 04:28:02;;;;;;;;;;;;;;;19.57;100.00;95605.78;5113374;28;2005;-55
2023/09/16 04:30:28;;;;;;;;;;;;;;;19.51;100.00;95612.03;5113570;28;965;-55
2023/09/16 04:32:55;;;;;;;;;;;;;;;19.50;100.00;95611.22;5095375;28;1036;-55
2023/09/16 04:35:21;;;;;;;;;;;;;;;19.55;100.00;95616.00;5113457;28;962;-56
2023/09/16 04:37:47;;;;;;;;;;;;;;;19.60;100.00;95616.25;5113383;28;1127;-56
2023/09/16 04:40:14;;;;;;;;;;;;;;;19.52;100.00;95619.16;5113689;28;984;-55
2023/09/16 04:42:40;;;;;;;;;;;;;;;19.59;100.00;95621.88;5113569;28;977;-55
2023/09/16 04:45:06;;;;;;;;;;;;;;;19.61;100.00;95622.50;5113513;28;957;-55
2023/09/16 04:47:33;;;;;;;;;;;;;;;19.62;100.00;95629.59;5115886;28;2427;-56
2023/09/16 04:50:00;;;;;;;;;;;;;;;19.63;100.00;95640.22;5131821;28;2561;-55
2023/09/16 04:52:27;;;;;;;;;;;;;;;19.56;100.00;95642.09;5133562;28;1027;-55
2023/09/16 04:54:54;;;;;;;;;;;;;;;19.59;100.00;95644.38;5134214;27;1857;-56
2023/09/16 04:57:20;;;;;;;;;;;;;;;19.65;100.00;95651.72;5137619;27;991;-55
2023/09/16 04:59:46;;;;;;;;;;;;;;;19.62;100.00;95644.00;5137324;27;1256;-55
2023/09/16 05:02:13;;;;;;;;;;;;;;;19.54;100.00;95640.63;5136884;27;1011;-54
2023/09/16 05:04:39;;;;;;;;;;;;;;;19.63;100.00;95632.09;5133313;27;1715;-55
2023/09/16 05:07:06;;;;;;;;;;;;;;;19.52;100.00;95630.00;5116698;28;1913;-54
2023/09/16 05:09:32;;;;;;;;;;;;;;;19.53;100.00;95625.41;5116633;28;1133;-55
2023/09/16 05:11:58;;;;;;;;;;;;;;;19.57;100.00;95632.91;5137292;27;964;-55
2023/09/16 05:14:24;;;;;;;;;;;;;;;19.66;100.00;95644.41;5137279;27;970;-55
2023/09/16 05:16:50;;;;;;;;;;;;;;;19.73;100.00;95637.16;5137181;27;1035;-55
2023/09/16 05:19:16;;;;;;;;;;;;;;;19.71;100.00;95641.94;5121226;27;953;-55
2023/09/16 05:21:42;;;;;;;;;;;;;;;19.74;100.00;95638.00;5116468;28;1039;-55
2023/09/16 05:24:08;;;;;;;;;;;;;;;19.77;100.00;95643.00;5116796;28;973;-56
2023/09/16 05:26:34;;;;;;;;;;;;;;;19.74;100.00;95638.00;5124567;27;2908;-55
2023/09/16 05:29:00;;;;;;;;;;;;;;;19.78;100.00;95647.38;5137091;27;1902;-54
2023/09/16 05:31:26;;;;;;;;;;;;;;;19.88;100.00;95651.38;5137121;27;974;-55
2023/09/16 05:33:52;;;;;;;;;;;;;;;20.02;100.00;95654.09;5136892;27;988;-55
2023/09/16 05:36:20;;;;;;;;;;;;;;;20.02;100.00;95656.81;5136962;27;969;-55
2023/09/16 05:38:46;;;;;;;;;;;;;;;20.02;100.00;95652.22;5137052;27;953;-55
2023/09/16 05:41:12;;;;;;;;;;;;;;;20.01;100.00;95660.56;5136942;27;965;-56
2023/09/16 05:43:38;;;;;;;;;;;;;;;20.06;100.00;95656.19;5136945;27;1051;-55
2023/09/16 05:46:06;;;;;;;;;;;;;;;20.28;100.00;95653.28;5136563;27;1036;-55
2023/09/16 05:48:32;;;;;;;;;;;;;;;20.48;100.00;95656.78;5132074;27;1963;-55
2023/09/16 05:50:58;;;;;;;;;;;;;;;20.75;100.00;95656.75;5115904;28;1064;-55
2023/09/16 05:53:24;;;;;;;;;;;;;;;20.78;100.00;95659.06;5115830;28;1075;-55
2023/09/16 05:55:51;;;;;;;;;;;;;;;20.71;100.00;95663.69;5115851;28;1032;-55
2023/09/16 05:58:17;;;;;;;;;;;;;;;20.75;100.00;95656.75;5115923;28;1387;-55
2023/09/16 06:00:43;;;;;;;;;;;;;;;21.18;100.00;95661.66;5115892;28;1019;-56
2023/09/16 06:03:09;;;;;;;;;;;;;;;21.30;100.00;95653.66;5116018;28;975;-55
2023/09/16 06:05:35;;;;;;;;;;;;;;;21.41;100.00;95657.59;5110826;28;1621;-55
2023/09/16 06:08:02;;;;;;;;;;;;;;;21.55;100.00;95661.97;5105061;28;1980;-56
2023/09/16 06:10:27;;;;;;;;;;;;;;;21.50;100.00;95660.94;5115511;28;1091;-55
2023/09/16 06:12:53;;;;;;;;;;;;;;;21.24;99.11;95663.50;5115640;28;1047;-55
2023/09/16 06:15:19;;;;;;;;;;;;;;;21.16;100.00;95663.75;5115567;28;1007;-55
2023/09/16 06:17:45;;;;;;;;;;;;;;;21.00;100.00;95662.38;5114132;28;1028;-55
2023/09/16 06:20:11;;;;;;;;;;;;;;;21.05;100.00;95673.41;5094836;28;1028;-55
2023/09/16 06:22:37;;;;;;;;;;;;;;;21.25;100.00;95665.19;5095213;28;988;-55
2023/09/16 06:25:03;;;;;;;;;;;;;;;21.08;100.00;95671.31;5094826;28;1041;-55
2023/09/16 06:27:29;;;;;;;;;;;;;;;20.81;100.00;95665.94;5094676;28;1905;-56
2023/09/16 06:29:55;;;;;;;;;;;;;;;20.86;100.00;95671.59;5094558;28;1056;-56
2023/09/16 06:32:21;;;;;;;;;;;;;;;20.83;100.00;95664.72;5112149;28;1032;-56
2023/09/16 06:34:47;;;;;;;;;;;;;;;20.65;100.00;95667.25;5115090;28;1056;-55
2023/09/16 06:39:23;;;;;;;;;;;;;;;20.62;100.00;95676.66;5117875;27;1303352;-55
2023/09/16 06:41:49;;;;;;;;;;;;;;;20.75;100.00;95673.06;5152754;27;990;-55
2023/09/16 06:44:15;;;;;;;;;;;;;;;20.71;100.00;95671.00;5152458;27;1035;-55
2023/09/16 06:46:43;;;;;;;;;;;;;;;20.70;100.00;95681.03;5152430;27;1055;-54
2023/09/16 06:49:09;;;;;;;;;;;;;;;20.82;100.00;95673.91;5152359;27;909;-54
2023/09/16 06:51:35;;;;;;;;;;;;;;;20.89;100.00;95676.63;5152202;27;1556;-56
2023/09/16 06:54:01;;;;;;;;;;;;;;;21.01;100.00;95684.94;5152469;27;965;-55
2023/09/16 06:56:28;;;;;;;;;;;;;;;21.21;100.00;95691.16;5152118;27;1059;-54
2023/09/16 06:58:56;;;;;;;;;;;;;;;21.37;100.00;95708.03;5152265;27;1971;-55
2023/09/16 07:01:23;;;;;;;;;;;;;;;21.44;100.00;95714.31;5150197;27;1856;-55
2023/09/16 07:03:49;;;;;;;;;;;;;;;21.47;99.06;95708.44;5138842;27;1778;-56
2023/09/16 07:06:15;;;;;;;;;;;;;;;21.46;100.00;95706.78;5145420;27;1367;-54
2023/09/16 07:08:41;;;;;;;;;;;;;;;21.49;100.00;95706.34;5139836;27;1627;-55
2023/09/16 07:11:07;;;;;;;;;;;;;;;21.48;100.00;95707.41;5151112;27;1509;-55
2023/09/16 07:13:33;;;;;;;;;;;;;;;21.32;98.53;95711.38;5152114;27;1052;-55
2023/09/16 07:15:59;;;;;;;;;;;;;;;21.25;100.00;95702.44;5143434;27;1999;-55
2023/09/16 07:18:25;;;;;;;;;;;;;;;21.18;100.00;95699.72;5140728;27;1918;-55
2023/09/16 07:20:51;;;;;;;;;;;;;;;21.16;100.00;95703.72;5129798;27;1930;-55
2023/09/16 07:23:17;;;;;;;;;;;;;;;21.13;100.00;95709.56;5143035;27;2570;-55
2023/09/16 07:25:52;;;;;;;;;;;;;;;21.00;100.00;95710.44;5142380;27;2831;-55
2023/09/16 07:28:18;;;;;;;;;;;;;;;21.00;100.00;95708.59;5150228;27;1961;-55
2023/09/16 07:30:44;;;;;;;;;;;;;;;21.08;100.00;95715.66;5151530;27;1044;-55
2023/09/16 07:33:10;;;;;;;;;;;;;;;21.05;100.00;95722.34;5151730;27;996;-55
2023/09/16 07:35:36;;;;;;;;;;;;;;;20.92;100.00;95716.94;5151655;27;1064;-55
2023/09/16 07:38:03;;;;;;;;;;;;;;;20.88;100.00;95720.31;5149569;27;2035;-56
2023/09/16 07:40:29;;;;;;;;;;;;;;;20.89;100.00;95720.09;5135127;27;1023;-55
2023/09/16 07:42:55;;;;;;;;;;;;;;;20.86;100.00;95718.63;5132943;27;1521;-55
2023/09/16 07:45:21;;;;;;;;;;;;;;;20.84;100.00;95715.28;5144864;27;2007;-54
2023/09/16 07:47:47;;;;;;;;;;;;;;;20.85;100.00;95710.72;5133432;27;1395;-56
2023/09/16 07:50:13;;;;;;;;;;;;;;;20.90;100.00;95708.16;5138845;27;932;-55
2023/09/16 07:52:39;;;;;;;;;;;;;;;20.86;100.00;95718.63;5137227;27;1044;-56
2023/09/16 07:55:07;;;;;;;;;;;;;;;20.84;100.00;95718.00;5127105;27;1719;-54
2023/09/16 07:57:33;;;;;;;;;;;;;;;20.87;100.00;95719.47;5122197;27;2004;-55
2023/09/16 08:00:03;;;;;;;;;;;;;;;20.90;100.00;95719.03;5127652;27;1701;-55
2023/09/16 08:02:29;;;;;;;;;;;;;;;20.81;100.00;95721.16;5125617;27;1388;-54
2023/09/16 08:04:55;;;;;;;;;;;;;;;20.67;100.00;95714.88;5128823;27;1353;-54
2023/09/16 08:07:21;;;;;;;;;;;;;;;20.54;100.00;95723.00;5136888;27;1032;-55
2023/09/16 08:09:47;;;;;;;;;;;;;;;20.50;100.00;95721.75;5137303;27;1042;-55
2023/09/16 08:12:13;;;;;;;;;;;;;;;20.41;100.00;95723.00;5135941;27;1011;-56
2023/09/16 08:14:40;;;;;;;;;;;;;;;20.32;100.00;95724.25;5118645;27;1334;-54
2023/09/16 08:17:06;;;;;;;;;;;;;;;20.45;100.00;95719.69;5137011;27;1976;-54
2023/09/16 08:19:32;;;;;;;;;;;;;;;20.60;100.00;95724.09;5136690;27;1048;-55
2023/09/16 08:21:58;;;;;;;;;;;;;;;20.79;100.00;95728.69;5136777;27;1023;-55
2023/09/16 08:24:24;;;;;;;;;;;;;;;20.99;100.00;95733.25;5136806;27;995;-56
2023/09/16 08:26:50;;;;;;;;;;;;;;;21.02;100.00;95730.13;5136713;27;1035;-56
2023/09/16 08:29:16;;;;;;;;;;;;;;;21.04;100.00;95731.56;5136523;27;1058;-55
2023/09/16 08:31:42;;;;;;;;;;;;;;;21.06;100.00;95725.94;5136570;27;1031;-54
2023/09/16 08:34:08;;;;;;;;;;;;;;;21.34;100.00;95722.06;5136389;27;1118;-54
2023/09/16 08:36:34;;;;;;;;;;;;;;;21.96;100.00;95728.72;5131072;27;1727;-55
2023/09/16 08:39:00;;;;;;;;;;;;;;;22.43;93.42;95728.44;5118124;27;1983;-55
2023/09/16 08:41:34;;;;;;;;;;;;;;;22.92;88.49;95726.75;5136281;27;1666;-55
2023/09/16 08:44:04;;;;;;;;;;;;;;;22.86;92.39;95730.38;5136415;27;1027;-55
2023/09/16 08:46:32;;;;;;;;;;;;;;;22.86;90.98;95734.97;5136104;27;972;-55
2023/09/16 08:48:59;;;;;;;;;;;;;;;22.87;90.91;95734.75;5136204;27;1032;-55
2023/09/16 08:51:26;;;;;;;;;;;;;;;22.79;93.68;95729.59;5136351;27;1019;-54
2023/09/16 08:53:52;;;;;;;;;;;;;;;22.80;94.23;95721.22;5133587;27;2123;-55
2023/09/16 08:56:18;;;;;;;;;;;;;;;22.94;90.69;95721.91;5135916;27;1170;-54
2023/09/16 08:58:45;;;;;;;;;;;;;;;23.24;90.36;95723.94;5117767;27;1933;-54
2023/09/16 09:01:11;;;;;;;;;;;;;;;23.43;87.51;95724.78;5134004;27;2018;-54
2023/09/16 09:03:37;;;;;;;;;;;;;;;23.47;88.44;95734.19;5127296;27;2016;-55
2023/09/16 09:06:04;;;;;;;;;;;;;;;23.72;89.90;95725.06;5135783;27;965;-56
2023/09/16 09:08:32;;;;;;;;;;;;;;;23.90;87.83;95727.78;5135721;27;1127;-54
2023/09/16 09:10:59;;;;;;;;;;;;;;;23.85;79.14;95729.56;5135831;27;1059;-54
2023/09/16 09:13:26;;;;;;;;;;;;;;;23.91;84.86;95720.44;5135975;27;1044;-56
2023/09/16 09:15:56;;;;;;;;;;;;;;;24.08;77.07;95717.88;5132320;27;1623;-53
2023/09/16 09:18:23;;;;;;;;;;;;;;;24.08;77.27;95721.44;5125566;27;2640;-55
2023/09/16 09:20:49;;;;;;;;;;;;;;;24.10;77.19;95710.28;5135699;27;1040;-55
2023/09/16 09:23:15;;;;;;;;;;;;;;;24.06;80.76;95715.38;5124129;27;1998;-55
2023/09/16 09:25:41;;;;;;;;;;;;;;;24.01;76.62;95708.94;5134099;27;912;-55
2023/09/16 09:28:07;;;;;;;;;;;;;;;24.24;76.83;95709.00;5129146;27;2031;-55
2023/09/16 09:30:33;;;;;;;;;;;;;;;24.08;72.65;95710.50;5135221;27;1079;-56
2023/09/16 09:32:59;;;;;;;;;;;;;;;23.87;73.58;95705.56;5134520;27;2010;-55
2023/09/16 09:35:26;;;;;;;;;;;;;;;24.00;79.74;95710.00;5118805;27;2188;-55
2023/09/16 09:37:53;;;;;;;;;;;;;;;23.92;72.65;95703.81;5124777;27;2020;-55
2023/09/16 09:40:19;;;;;;;;;;;;;;;24.09;76.10;95706.72;5120086;27;2886;-55
2023/09/16 09:42:46;;;;;;;;;;;;;;;24.34;77.24;95708.47;5115118;27;1269;-55
2023/09/16 09:45:16;;;;;;;;;;;;;;;24.41;77.65;95709.16;5113729;28;960;-55
2023/09/16 09:47:43;;;;;;;;;;;;;;;24.42;75.60;95702.66;5114091;28;1068;-55
2023/09/16 09:50:14;;;;;;;;;;;;;;;24.49;74.04;95703.38;5113500;28;1376;-55
2023/09/16 09:52:50;;;;;;;;;;;;;;;24.40;77.83;95699.31;5113638;28;1121;-55
2023/09/16 09:55:20;;;;;;;;;;;;;;;24.48;77.30;95695.41;5114059;28;1032;-55
2023/09/16 09:57:47;;;;;;;;;;;;;;;24.49;76.62;95688.84;5114191;27;1891;-55
2023/09/16 10:00:14;;;;;;;;;;;;;;;24.55;75.93;95682.50;5133937;27;964;-55
2023/09/16 10:02:41;;;;;;;;;;;;;;;24.61;72.31;95684.28;5134733;27;992;-55
2023/09/16 10:05:07;;;;;;;;;;;;;;;24.78;72.34;95678.94;5134843;27;958;-55
2023/09/16 10:07:33;;;;;;;;;;;;;;;24.77;72.92;95680.00;5134544;27;1871;-55
2023/09/16 10:09:59;;;;;;;;;;;;;;;24.76;73.71;95675.63;5134673;27;1135;-54
2023/09/16 10:12:25;;;;;;;;;;;;;;;24.80;72.30;95671.34;5134225;27;1052;-55
2023/09/16 10:14:51;;;;;;;;;;;;;;;24.80;73.15;95665.03;5134541;27;1055;-55
2023/09/16 10:17:18;;;;;;;;;;;;;;;24.81;71.31;95656.56;5134729;27;1902;-54
2023/09/16 10:19:44;;;;;;;;;;;;;;;24.91;67.62;95656.81;5134661;27;1048;-55
2023/09/16 10:22:11;;;;;;;;;;;;;;;25.08;62.71;95662.41;5134595;27;957;-55
2023/09/16 10:24:38;;;;;;;;;;;;;;;25.23;65.21;95658.34;5134431;27;1233;-55
2023/09/16 10:27:08;;;;;;;;;;;;;;;25.20;66.11;95656.06;5134637;27;1007;-54
2023/09/16 10:29:35;;;;;;;;;;;;;;;25.25;64.61;95656.19;5134297;27;1035;-55
2023/09/16 10:32:01;;;;;;;;;;;;;;;25.10;61.06;95657.50;5134651;27;985;-55
2023/09/16 10:34:29;;;;;;;;;;;;;;;24.98;60.39;95656.69;5134391;27;1040;-55
2023/09/16 10:36:55;;;;;;;;;;;;;;;25.11;63.87;95656.44;5134323;28;913;-55
2023/09/16 10:39:22;;;;;;;;;;;;;;;25.00;64.25;95654.53;5133931;28;1910;-55
2023/09/16 10:41:48;;;;;;;;;;;;;;;24.75;63.18;95652.88;5134477;28;956;-55
2023/09/16 10:44:15;;;;;;;;;;;;;;;24.65;63.38;95655.41;5134308;28;968;-55
2023/09/16 10:46:43;;;;;;;;;;;;;;;24.51;64.12;95651.19;5134385;28;1072;-55
2023/09/16 10:49:09;;;;;;;;;;;;;;;24.45;69.23;95652.13;5134146;28;1091;-55
2023/09/16 10:51:41;;;;;;;;;;;;;;;24.33;67.76;95644.75;5134708;28;1054;-55
2023/09/16 10:54:10;;;;;;;;;;;;;;;24.05;61.88;95659.06;5134060;28;1036;-55
2023/09/16 10:56:43;;;;;;;;;;;;;;;23.91;64.35;95643.97;5134369;28;1003;-55
2023/09/16 10:59:13;;;;;;;;;;;;;;;24.17;67.07;95632.63;5120830;28;1972;-55
2023/09/16 11:01:48;;;;;;;;;;;;;;;24.59;64.80;95630.94;5113527;28;1095;-55
2023/09/16 11:04:15;;;;;;;;;;;;;;;24.81;62.74;95622.94;5113731;28;982;-55
2023/09/16 11:06:42;;;;;;;;;;;;;;;25.07;62.51;95616.94;5113382;28;1048;-55
2023/09/16 11:09:09;;;;;;;;;;;;;;;25.14;60.90;95608.63;5113678;28;1031;-56
2023/09/16 11:11:36;;;;;;;;;;;;;;;24.69;61.05;95610.09;5113467;28;1103;-55
2023/09/16 11:14:03;;;;;;;;;;;;;;;24.25;62.08;95609.59;5132074;28;2456;-56
2023/09/16 11:16:29;;;;;;;;;;;;;;;23.93;64.48;95600.88;5133849;28;1040;-55
2023/09/16 11:18:56;;;;;;;;;;;;;;;23.83;64.07;95597.84;5134117;28;1918;-56
2023/09/16 11:21:22;;;;;;;;;;;;;;;23.76;64.73;95597.94;5133722;28;1059;-55
2023/09/16 11:23:48;;;;;;;;;;;;;;;23.63;64.00;95598.97;5134218;27;1020;-56
2023/09/16 11:26:21;;;;;;;;;;;;;;;23.81;66.54;95598.13;5137770;27;958;-56
2023/09/16 11:28:47;;;;;;;;;;;;;;;24.04;69.75;95607.44;5136461;27;2513;-55
2023/09/16 11:31:13;;;;;;;;;;;;;;;24.08;69.88;95605.88;5137838;27;1016;-54
2023/09/16 11:33:39;;;;;;;;;;;;;;;23.94;67.72;95594.31;5137928;27;1012;-54
2023/09/16 11:36:05;;;;;;;;;;;;;;;23.89;68.64;95589.56;5137528;27;1012;-55
2023/09/16 11:38:31;;;;;;;;;;;;;;;23.83;70.06;95592.41;5137197;27;1995;-56
2023/09/16 11:41:08;;;;;;;;;;;;;;;23.90;66.36;95591.25;5137821;27;987;-55
2023/09/16 11:43:36;;;;;;;;;;;;;;;23.89;69.15;95583.28;5137348;27;1036;-55
2023/09/16 11:46:02;;;;;;;;;;;;;;;24.10;68.07;95585.47;5137707;27;1004;-55
2023/09/16 11:48:35;;;;;;;;;;;;;;;24.50;66.70;95583.94;5137211;27;1068;-55
2023/09/16 11:51:01;;;;;;;;;;;;;;;24.67;68.92;95593.09;5137654;27;967;-56
2023/09/16 11:53:27;;;;;;;;;;;;;;;24.79;66.32;95581.31;5137478;27;1043;-56
2023/09/16 11:55:53;;;;;;;;;;;;;;;25.08;68.08;95574.00;5137160;27;1032;-56
2023/09/16 11:58:20;;;;;;;;;;;;;;;25.17;68.57;95560.78;5130811;27;1999;-55
2023/09/16 12:00:47;;;;;;;;;;;;;;;25.29;69.00;95550.69;5116861;28;1060;-56
2023/09/16 12:03:14;;;;;;;;;;;;;;;25.23;69.50;95549.75;5116643;28;1045;-56
2023/09/16 12:05:40;;;;;;;;;;;;;;;25.19;70.43;95558.63;5116788;28;1048;-56
2023/09/16 12:08:06;;;;;;;;;;;;;;;25.25;71.52;95561.28;5116777;28;1056;-56
2023/09/16 12:10:33;;;;;;;;;;;;;;;25.36;69.84;95567.75;5116334;28;1095;-56
2023/09/16 12:12:59;;;;;;;;;;;;;;;25.51;69.90;95573.53;5116653;28;965;-55
2023/09/16 12:15:25;;;;;;;;;;;;;;;25.55;68.21;95576.59;5116229;28;1051;-55
2023/09/16 12:17:51;;;;;;;;;;;;;;;25.40;67.58;95560.75;5116132;28;1913;-56
2023/09/16 12:20:17;;;;;;;;;;;;;;;25.25;69.61;95554.94;5116079;28;1040;-56
2023/09/16 12:22:45;;;;;;;;;;;;;;;24.89;68.90;95557.78;5103025;28;1978;-56
2023/09/16 12:25:11;;;;;;;;;;;;;;;24.93;68.36;95555.38;5108917;28;1049;-56
2023/09/16 12:27:37;;;;;;;;;;;;;;;24.95;69.09;95553.25;5097783;28;958;-56
2023/09/16 12:30:03;;;;;;;;;;;;;;;25.00;70.40;95545.13;5108822;28;1040;-56
2023/09/16 12:32:29;;;;;;;;;;;;;;;25.04;70.92;95543.59;5115902;28;1036;-56
2023/09/16 12:35:04;;;;;;;;;;;;;;;25.02;71.01;95542.97;5115591;28;2446;-56
2023/09/16 12:37:30;;;;;;;;;;;;;;;25.03;73.14;95528.22;5115330;27;2997;-57
2023/09/16 12:39:57;;;;;;;;;;;;;;;25.04;71.86;95529.06;5115721;28;1091;-57
2023/09/16 12:42:23;;;;;;;;;;;;;;;25.05;70.89;95526.09;5115650;28;970;-58
2023/09/16 12:44:51;;;;;;;;;;;;;;;25.03;71.17;95520.03;5108882;28;1069;-57
2023/09/16 12:47:17;;;;;;;;;;;;;;;24.99;70.71;95515.31;5115879;28;1050;-57
2023/09/16 12:49:43;;;;;;;;;;;;;;;24.98;70.09;95519.91;5115905;28;1020;-56
2023/09/16 12:52:11;;;;;;;;;;;;;;;25.02;71.43;95512.88;5115910;28;1015;-56